createdAt,value
2022-07-30T00:01:43.738Z,9.00
2022-07-30T00:04:11.291Z,6.88
2022-07-30T00:06:40.609Z,7.17
2022-07-30T00:09:08.201Z,6.40
2022-07-30T00:11:35.745Z,9.52
2022-07-30T00:14:03.462Z,14.40
2022-07-30T00:16:31.071Z,14.23
2022-07-30T00:18:58.605Z,12.23
2022-07-30T00:21:38.855Z,10.90
2022-07-30T00:24:08.929Z,9.88
2022-07-30T00:26:36.791Z,8.18
2022-07-30T00:29:05.409Z,7.78
2022-07-30T00:31:33.142Z,7.90
2022-07-30T00:34:00.741Z,10.35
2022-07-30T00:36:28.361Z,6.50
2022-07-30T00:38:56.083Z,9.27
2022-07-30T00:41:24.028Z,9.68
2022-07-30T00:43:51.898Z,7.97
2022-07-30T00:46:19.506Z,10.18
2022-07-30T00:48:47.281Z,6.55
2022-07-30T00:51:14.978Z,7.90
2022-07-30T00:53:42.528Z,8.13
2022-07-30T00:56:10.107Z,9.80
2022-07-30T00:58:37.651Z,10.05
2022-07-30T01:01:05.342Z,8.85
2022-07-30T01:03:32.898Z,7.35
2022-07-30T01:06:00.622Z,11.13
2022-07-30T01:08:30.785Z,7.47
2022-07-30T01:10:58.395Z,7.35
2022-07-30T01:13:25.931Z,8.10
2022-07-30T01:15:54.594Z,8.55
2022-07-30T01:18:25.179Z,7.65
2022-07-30T01:21:08.155Z,8.27
2022-07-30T01:23:43.401Z,8.07
2022-07-30T01:26:19.963Z,9.15
2022-07-30T01:28:51.737Z,7.85
2022-07-30T01:31:21.798Z,9.23
2022-07-30T01:33:51.534Z,11.87
2022-07-30T01:36:23.283Z,9.15
2022-07-30T01:38:52.705Z,6.80
2022-07-30T01:41:21.398Z,6.80
2022-07-30T01:44:26.704Z,11.75
2022-07-30T01:48:08.730Z,6.87
2022-07-30T01:51:50.453Z,8.45
2022-07-30T01:55:32.380Z,11.15
2022-07-30T01:58:21.449Z,6.88
2022-07-30T02:00:56.234Z,8.13
2022-07-30T02:03:24.375Z,10.83
2022-07-30T02:06:01.003Z,9.68
2022-07-30T02:08:42.995Z,7.75
2022-07-30T02:11:13.759Z,9.50
2022-07-30T02:13:47.846Z,12.40
2022-07-30T02:16:41.068Z,8.20
2022-07-30T02:19:17.346Z,6.60
2022-07-30T02:21:50.910Z,7.78
2022-07-30T02:24:26.228Z,11.35
2022-07-30T02:26:58.490Z,9.52
2022-07-30T02:29:26.895Z,8.10
2022-07-30T02:31:57.275Z,11.43
2022-07-30T02:34:26.007Z,10.32
2022-07-30T02:36:55.236Z,11.55
2022-07-30T02:39:23.314Z,7.38
2022-07-30T02:41:52.316Z,7.33
2022-07-30T02:44:21.796Z,8.70
2022-07-30T02:46:51.569Z,7.85
2022-07-30T02:49:33.834Z,7.60
2022-07-30T02:52:03.523Z,7.05
2022-07-30T02:54:32.817Z,6.97
2022-07-30T02:57:02.362Z,8.25
2022-07-30T02:59:31.970Z,6.53
2022-07-30T03:02:01.455Z,9.50
2022-07-30T03:04:30.061Z,8.13
2022-07-30T03:07:01.766Z,8.53
2022-07-30T03:09:50.789Z,9.88
2022-07-30T03:12:20.306Z,8.05
2022-07-30T03:14:48.013Z,8.65
2022-07-30T03:17:17.668Z,7.10
2022-07-30T03:19:46.292Z,6.50
2022-07-30T03:22:17.812Z,11.15
2022-07-30T03:24:48.603Z,6.63
2022-07-30T03:27:17.494Z,6.85
2022-07-30T03:29:46.957Z,6.03
2022-07-30T03:32:15.085Z,8.20
2022-07-30T03:34:44.199Z,6.70
2022-07-30T03:37:15.157Z,7.53
2022-07-30T03:39:42.931Z,7.05
2022-07-30T03:42:11.305Z,6.28
2022-07-30T03:44:40.002Z,7.60
2022-07-30T03:47:09.072Z,6.53
2022-07-30T03:49:43.496Z,6.88
2022-07-30T03:52:11.500Z,6.82
2022-07-30T03:54:39.577Z,7.32
2022-07-30T03:57:26.656Z,6.03
2022-07-30T03:59:54.291Z,6.50
2022-07-30T04:02:22.806Z,7.40
2022-07-30T04:05:17.364Z,8.10
2022-07-30T04:07:46.914Z,5.60
2022-07-30T04:10:17.160Z,8.37
2022-07-30T04:13:00.448Z,6.35
2022-07-30T04:16:16.725Z,7.45
2022-07-30T04:18:24.902Z,6.35
2022-07-30T04:20:56.041Z,5.90
2022-07-30T04:23:23.692Z,6.67
2022-07-30T04:25:52.037Z,5.93
2022-07-30T04:28:20.410Z,5.95
2022-07-30T04:30:48.106Z,6.45
2022-07-30T04:33:16.008Z,6.63
2022-07-30T04:35:59.406Z,5.43
2022-07-30T04:38:32.695Z,6.68
2022-07-30T04:41:00.871Z,6.22
2022-07-30T04:43:32.864Z,6.95
2022-07-30T04:46:00.973Z,5.40
2022-07-30T04:48:29.454Z,6.70
2022-07-30T04:51:37.449Z,7.13
2022-07-30T04:54:15.456Z,5.65
2022-07-30T04:56:53.121Z,6.05
2022-07-30T04:59:25.491Z,5.50
2022-07-30T05:01:56.553Z,6.33
2022-07-30T05:04:26.837Z,6.43
2022-07-30T05:06:57.174Z,6.93
2022-07-30T05:09:25.380Z,5.45
2022-07-30T05:11:54.529Z,6.57
2022-07-30T05:14:23.487Z,5.53
2022-07-30T05:16:52.071Z,7.28
2022-07-30T05:19:21.308Z,4.97
2022-07-30T05:21:49.265Z,5.30
2022-07-30T05:24:16.831Z,4.85
2022-07-30T05:26:50.682Z,5.30
2022-07-30T05:29:20.452Z,5.30
2022-07-30T05:31:53.818Z,4.97
2022-07-30T05:34:22.877Z,5.13
2022-07-30T05:36:52.474Z,4.78
2022-07-30T05:39:20.856Z,5.50
2022-07-30T05:42:17.600Z,7.45
2022-07-30T05:44:56.204Z,7.15
2022-07-30T05:47:23.852Z,5.95
2022-07-30T05:49:52.183Z,7.28
2022-07-30T05:52:19.817Z,6.77
2022-07-30T05:54:47.655Z,6.07
2022-07-30T05:57:37.929Z,5.10
2022-07-30T06:00:08.027Z,6.60
2022-07-30T06:02:54.538Z,5.35
2022-07-30T06:05:41.628Z,5.87
2022-07-30T06:08:09.608Z,5.22
2022-07-30T06:10:37.991Z,4.82
2022-07-30T06:13:05.919Z,6.50
2022-07-30T06:15:33.618Z,6.00
2022-07-30T06:18:02.303Z,4.53
2022-07-30T06:20:56.799Z,5.43
2022-07-30T06:23:32.992Z,7.20
2022-07-30T06:26:03.940Z,5.25
2022-07-30T06:28:39.513Z,5.60
2022-07-30T06:31:38.591Z,5.13
2022-07-30T06:34:07.823Z,5.90
2022-07-30T06:36:47.120Z,6.88
2022-07-30T06:39:56.522Z,7.65
2022-07-30T06:42:33.203Z,6.28
2022-07-30T06:45:19.030Z,6.90
2022-07-30T06:48:05.447Z,5.38
2022-07-30T06:50:33.691Z,6.32
2022-07-30T06:53:01.309Z,8.02
2022-07-30T06:55:41.843Z,6.80
2022-07-30T06:58:09.531Z,7.10
2022-07-30T07:00:55.434Z,8.75
2022-07-30T07:03:39.364Z,8.27
2022-07-30T07:06:08.961Z,9.98
2022-07-30T07:08:38.672Z,9.27
2022-07-30T07:11:08.107Z,8.17
2022-07-30T07:13:45.142Z,8.25
2022-07-30T07:16:25.360Z,6.93
2022-07-30T07:18:56.116Z,8.98
2022-07-30T07:21:23.998Z,9.63
2022-07-30T07:23:54.107Z,7.53
2022-07-30T07:26:40.301Z,8.95
2022-07-30T07:29:08.950Z,7.30
2022-07-30T07:32:05.228Z,8.40
2022-07-30T07:34:24.106Z,9.02
2022-07-30T07:36:51.760Z,5.90
2022-07-30T07:39:19.320Z,7.40
2022-07-30T07:41:49.423Z,7.78
2022-07-30T07:44:22.719Z,7.75
2022-07-30T07:46:50.288Z,7.03
2022-07-30T07:49:18.129Z,7.33
2022-07-30T07:51:49.467Z,8.88
2022-07-30T07:54:24.246Z,9.68
2022-07-30T07:56:56.738Z,9.60
2022-07-30T07:59:44.921Z,7.93
2022-07-30T08:02:18.385Z,7.20
2022-07-30T08:04:46.884Z,8.00
2022-07-30T08:07:33.222Z,11.25
2022-07-30T08:10:19.328Z,10.60
2022-07-30T08:13:06.996Z,12.40
2022-07-30T08:16:23.935Z,10.30
2022-07-30T08:19:10.219Z,8.93
2022-07-30T08:21:40.539Z,7.60
2022-07-30T08:24:09.126Z,9.20
2022-07-30T08:26:36.737Z,7.05
2022-07-30T08:29:04.295Z,7.63
2022-07-30T08:31:31.901Z,6.22
2022-07-30T08:33:59.463Z,7.57
2022-07-30T08:36:28.396Z,6.82
2022-07-30T08:38:55.997Z,6.93
2022-07-30T08:41:24.674Z,7.10
2022-07-30T08:43:53.793Z,8.40
2022-07-30T08:46:25.743Z,6.32
2022-07-30T08:49:00.563Z,9.20
2022-07-30T08:51:35.937Z,8.00
2022-07-30T08:54:22.769Z,7.27
2022-07-30T08:56:50.972Z,9.48
2022-07-30T08:59:18.670Z,6.35
2022-07-30T09:01:46.499Z,7.20
2022-07-30T09:04:14.731Z,8.77
2022-07-30T09:06:42.897Z,5.83
2022-07-30T09:09:11.173Z,8.15
2022-07-30T09:11:38.675Z,8.30
2022-07-30T09:14:24.455Z,10.43
2022-07-30T09:17:00.766Z,9.65
2022-07-30T09:19:28.598Z,11.60
2022-07-30T09:22:01.992Z,7.07
2022-07-30T09:24:55.397Z,6.20
2022-07-30T09:27:57.993Z,7.10
2022-07-30T09:30:54.883Z,7.05
2022-07-30T09:33:43.138Z,6.57
2022-07-30T09:36:33.732Z,6.97
2022-07-30T09:39:33.283Z,6.72
2022-07-30T09:42:23.734Z,9.15
2022-07-30T09:45:05.392Z,7.43
2022-07-30T09:47:35.746Z,5.97
2022-07-30T09:50:08.572Z,5.85
2022-07-30T09:52:43.957Z,7.22
2022-07-30T09:55:14.735Z,7.63
2022-07-30T09:57:59.573Z,11.05
2022-07-30T10:00:30.982Z,8.03
2022-07-30T10:03:34.163Z,6.93
2022-07-30T10:06:38.164Z,6.60
2022-07-30T10:09:37.151Z,6.00
2022-07-30T10:12:11.906Z,5.68
2022-07-30T10:14:46.420Z,7.27
2022-07-30T10:17:18.237Z,7.30
2022-07-30T10:20:09.125Z,6.22
2022-07-30T10:22:39.880Z,6.45
2022-07-30T10:25:27.917Z,6.97
2022-07-30T10:28:19.745Z,6.67
2022-07-30T10:30:51.195Z,6.00
2022-07-30T10:33:34.912Z,6.65
2022-07-30T10:36:04.575Z,5.93
2022-07-30T10:38:41.317Z,6.85
2022-07-30T10:41:47.719Z,6.67
2022-07-30T10:44:37.208Z,5.85
2022-07-30T10:47:09.337Z,6.20
2022-07-30T10:49:41.517Z,6.90
2022-07-30T10:52:09.936Z,7.72
2022-07-30T10:54:45.210Z,7.60
2022-07-30T10:57:31.926Z,9.20
2022-07-30T11:00:00.794Z,6.68
2022-07-30T11:02:35.960Z,5.95
2022-07-30T11:05:32.097Z,7.40
2022-07-30T11:08:36.300Z,7.50
2022-07-30T11:11:19.822Z,6.63
2022-07-30T11:14:02.657Z,6.85
2022-07-30T11:16:32.947Z,6.40
2022-07-30T11:19:55.316Z,6.47
2022-07-30T11:22:25.527Z,7.97
2022-07-30T11:24:53.697Z,7.18
2022-07-30T11:27:41.371Z,6.40
2022-07-30T11:30:18.981Z,8.35
2022-07-30T11:32:49.066Z,10.18
2022-07-30T11:35:24.691Z,7.57
2022-07-30T11:38:07.045Z,7.55
2022-07-30T11:41:02.919Z,7.63
2022-07-30T11:43:36.234Z,6.45
2022-07-30T11:46:28.747Z,7.90
2022-07-30T11:49:00.133Z,7.67
2022-07-30T11:51:27.990Z,6.78
2022-07-30T11:54:06.190Z,6.82
2022-07-30T11:56:34.536Z,7.20
2022-07-30T11:59:06.238Z,8.68
2022-07-30T12:01:35.573Z,7.53
2022-07-30T12:04:09.182Z,6.25
2022-07-30T12:06:47.715Z,6.72
2022-07-30T12:09:29.451Z,6.85
2022-07-30T12:11:57.890Z,7.40
2022-07-30T12:14:25.803Z,8.63
2022-07-30T12:16:55.077Z,8.25
2022-07-30T12:19:22.685Z,6.78
2022-07-30T12:21:53.293Z,6.90
2022-07-30T12:24:27.040Z,6.10
2022-07-30T12:27:07.772Z,5.80
2022-07-30T12:29:38.433Z,6.35
2022-07-30T12:32:06.309Z,9.68
2022-07-30T12:34:37.077Z,6.95
2022-07-30T12:37:10.358Z,6.93
2022-07-30T12:39:38.084Z,6.80
2022-07-30T12:42:17.798Z,6.10
2022-07-30T12:44:45.433Z,7.20
2022-07-30T12:47:39.196Z,5.38
2022-07-30T12:50:17.671Z,6.35
2022-07-30T12:52:50.566Z,7.63
2022-07-30T12:55:20.332Z,6.38
2022-07-30T12:58:07.017Z,6.00
2022-07-30T13:00:44.798Z,8.70
2022-07-30T13:03:24.132Z,6.93
2022-07-30T13:05:56.561Z,8.47
2022-07-30T13:08:50.883Z,7.55
2022-07-30T13:11:20.396Z,6.57
2022-07-30T13:13:48.457Z,7.38
2022-07-30T13:16:17.052Z,8.43
2022-07-30T13:18:44.930Z,7.27
2022-07-30T13:21:12.624Z,7.22
2022-07-30T13:23:41.758Z,9.15
2022-07-30T13:26:10.293Z,8.90
2022-07-30T13:28:37.867Z,10.48
2022-07-30T13:31:05.825Z,6.60
2022-07-30T13:33:34.675Z,8.68
2022-07-30T13:36:02.663Z,10.93
2022-07-30T13:38:30.288Z,8.88
2022-07-30T13:41:02.232Z,6.38
2022-07-30T13:43:33.742Z,8.57
2022-07-30T13:46:05.657Z,8.30
2022-07-30T13:48:33.935Z,7.25
2022-07-30T13:51:03.126Z,9.15
2022-07-30T13:53:30.710Z,9.52
2022-07-30T13:56:02.072Z,8.30
2022-07-30T13:58:35.492Z,7.45
2022-07-30T14:01:03.822Z,6.70
2022-07-30T14:03:31.351Z,6.60
2022-07-30T14:06:10.094Z,7.05
2022-07-30T14:08:39.813Z,7.80
2022-07-30T14:11:07.312Z,6.50
2022-07-30T14:13:35.147Z,7.45
2022-07-30T14:16:02.720Z,7.57
2022-07-30T14:18:30.300Z,6.88
2022-07-30T14:20:57.940Z,7.00
2022-07-30T14:23:26.587Z,8.18
2022-07-30T14:25:54.055Z,8.35
2022-07-30T14:28:21.622Z,6.63
2022-07-30T14:30:49.190Z,8.40
2022-07-30T14:33:17.579Z,7.73
2022-07-30T14:35:45.086Z,9.13
2022-07-30T14:38:12.609Z,7.20
2022-07-30T14:40:40.790Z,7.72
2022-07-30T14:43:08.329Z,7.45
2022-07-30T14:45:36.802Z,6.53
2022-07-30T14:48:04.539Z,6.75
2022-07-30T14:50:32.194Z,6.55
2022-07-30T14:52:59.918Z,7.00
2022-07-30T14:55:27.435Z,6.10
2022-07-30T14:57:54.996Z,6.53
2022-07-30T15:00:24.247Z,5.70
2022-07-30T15:02:52.116Z,7.00
2022-07-30T15:05:19.692Z,6.22
2022-07-30T15:07:47.322Z,11.82
2022-07-30T15:10:15.864Z,6.90
2022-07-30T15:12:43.459Z,7.15
2022-07-30T15:15:12.059Z,6.93
2022-07-30T15:17:41.619Z,7.85
2022-07-30T15:20:09.717Z,7.60
2022-07-30T15:22:37.313Z,9.57
2022-07-30T15:25:05.986Z,5.47
2022-07-30T15:27:34.461Z,7.55
2022-07-30T15:30:02.298Z,7.10
2022-07-30T15:32:30.711Z,5.53
2022-07-30T15:34:59.070Z,7.20
2022-07-30T15:37:26.755Z,7.38
2022-07-30T15:39:54.259Z,7.82
2022-07-30T15:42:22.634Z,7.30
2022-07-30T15:45:14.283Z,8.80
2022-07-30T15:47:38.087Z,6.27
2022-07-30T15:50:06.483Z,7.32
2022-07-30T15:52:36.652Z,6.88
2022-07-30T15:55:05.898Z,7.93
2022-07-30T15:57:33.429Z,9.98
2022-07-30T16:00:01.081Z,10.93
2022-07-30T16:02:30.108Z,11.55
2022-07-30T16:04:57.757Z,12.02
2022-07-30T16:07:25.324Z,13.23
2022-07-30T16:09:52.963Z,16.25
2022-07-30T16:12:20.465Z,14.50
2022-07-30T16:14:48.218Z,15.43
2022-07-30T16:17:16.702Z,12.50
2022-07-30T16:19:45.231Z,12.02
2022-07-30T16:22:18.426Z,15.82
2022-07-30T16:24:51.802Z,9.80
2022-07-30T16:27:19.698Z,11.75
2022-07-30T16:29:47.240Z,10.15
2022-07-30T16:32:14.824Z,9.38
2022-07-30T16:34:42.342Z,6.30
2022-07-30T16:37:10.204Z,7.03
2022-07-30T16:39:37.674Z,7.55
2022-07-30T16:42:08.207Z,6.25
2022-07-30T16:44:35.925Z,10.60
2022-07-30T16:47:03.846Z,6.68
2022-07-30T16:49:31.467Z,7.17
2022-07-30T16:51:59.085Z,6.15
2022-07-30T16:54:26.901Z,6.88
2022-07-30T16:56:54.591Z,6.47
2022-07-30T16:59:23.275Z,9.15
2022-07-30T17:01:50.882Z,7.43
2022-07-30T17:04:18.464Z,7.45
2022-07-30T17:06:47.328Z,5.82
2022-07-30T17:09:15.823Z,8.20
2022-07-30T17:11:47.012Z,6.78
2022-07-30T17:14:22.457Z,8.47
2022-07-30T17:16:50.756Z,7.32
2022-07-30T17:19:18.282Z,8.85
2022-07-30T17:21:45.898Z,7.35
2022-07-30T17:24:14.056Z,6.70
2022-07-30T17:26:46.842Z,7.87
2022-07-30T17:29:16.017Z,6.82
2022-07-30T17:31:45.036Z,6.30
2022-07-30T17:34:15.612Z,6.70
2022-07-30T17:36:52.714Z,7.00
2022-07-30T17:40:27.871Z,7.03
2022-07-30T17:42:11.140Z,8.30
2022-07-30T17:44:43.217Z,6.22
2022-07-30T17:47:15.212Z,7.22
2022-07-30T17:49:44.485Z,8.77
2022-07-30T17:52:12.008Z,8.20
2022-07-30T17:54:39.600Z,8.63
2022-07-30T17:57:07.415Z,7.03
2022-07-30T17:59:34.929Z,6.72
2022-07-30T18:02:04.724Z,7.57
2022-07-30T18:04:33.641Z,7.83
2022-07-30T18:07:01.614Z,6.88
2022-07-30T18:09:36.253Z,8.52
2022-07-30T18:12:08.262Z,7.40
2022-07-30T18:14:35.829Z,9.57
2022-07-30T18:17:03.891Z,9.77
2022-07-30T18:19:31.622Z,6.90
2022-07-30T18:22:02.907Z,10.65
2022-07-30T18:24:31.981Z,8.15
2022-07-30T18:27:02.288Z,10.88
2022-07-30T18:29:30.056Z,8.77
2022-07-30T18:31:57.587Z,7.65
2022-07-30T18:34:25.114Z,9.18
2022-07-30T18:36:55.765Z,8.38
2022-07-30T18:39:23.333Z,10.95
2022-07-30T18:41:50.918Z,9.10
2022-07-30T18:44:18.492Z,12.02
2022-07-30T18:46:46.171Z,11.20
2022-07-30T18:49:35.722Z,11.38
2022-07-30T18:52:02.758Z,11.23
2022-07-30T18:54:31.179Z,12.97
2022-07-30T18:56:58.706Z,8.55
2022-07-30T18:59:26.270Z,8.23
2022-07-30T19:01:54.167Z,7.70
2022-07-30T19:04:22.296Z,6.88
2022-07-30T19:06:49.826Z,7.40
2022-07-30T19:09:18.278Z,10.00
2022-07-30T19:11:46.908Z,7.53
2022-07-30T19:14:14.939Z,8.05
2022-07-30T19:16:43.896Z,7.63
2022-07-30T19:19:13.847Z,8.67
2022-07-30T19:21:41.759Z,7.40
2022-07-30T19:24:10.083Z,9.57
2022-07-30T19:26:39.986Z,8.52
2022-07-30T19:29:10.846Z,9.18
2022-07-30T19:31:38.549Z,9.90
2022-07-30T19:34:08.886Z,9.20
2022-07-30T19:36:36.689Z,7.35
2022-07-30T19:39:07.011Z,10.15
2022-07-30T19:41:40.976Z,8.38
2022-07-30T19:44:09.985Z,8.67
2022-07-30T19:46:38.999Z,7.05
2022-07-30T19:49:09.867Z,6.53
2022-07-30T19:52:10.979Z,6.82
2022-07-30T19:54:26.079Z,8.40
2022-07-30T19:56:53.634Z,8.27
2022-07-30T19:59:44.981Z,8.60
2022-07-30T20:02:08.689Z,9.52
2022-07-30T20:04:37.625Z,8.13
2022-07-30T20:07:05.283Z,7.90
2022-07-30T20:09:33.119Z,9.00
2022-07-30T20:12:02.297Z,9.85
2022-07-30T20:14:30.340Z,8.85
2022-07-30T20:19:47.919Z,7.80
2022-07-30T20:22:16.830Z,8.10
2022-07-30T20:24:45.440Z,9.13
2022-07-30T20:27:37.383Z,8.15
2022-07-30T20:30:01.832Z,13.30
2022-07-30T20:32:31.513Z,8.85
2022-07-30T20:34:58.969Z,7.87
2022-07-30T20:37:27.620Z,10.32
2022-07-30T20:39:56.036Z,9.93
2022-07-30T20:42:24.625Z,9.80
2022-07-30T20:44:57.175Z,7.93
2022-07-30T20:47:34.760Z,10.23
2022-07-30T20:50:09.408Z,9.18
2022-07-30T20:52:41.256Z,10.50
2022-07-30T20:55:16.990Z,10.93
2022-07-30T20:57:57.063Z,12.77
2022-07-30T21:00:30.500Z,12.67
2022-07-30T21:02:58.064Z,15.77
2022-07-30T21:05:31.987Z,18.05
2022-07-30T21:07:59.649Z,18.27
2022-07-30T21:10:28.424Z,12.80
2022-07-30T21:13:03.221Z,11.30
2022-07-30T21:15:36.556Z,10.05
2022-07-30T21:18:13.562Z,8.57
2022-07-30T21:20:41.188Z,10.75
2022-07-30T21:26:13.275Z,8.17
2022-07-30T21:28:41.528Z,10.25
2022-07-30T21:31:09.250Z,8.88
2022-07-30T21:33:37.603Z,10.27
2022-07-30T21:36:10.248Z,9.60
2022-07-30T21:38:42.706Z,9.37
2022-07-30T21:41:13.195Z,8.18
2022-07-30T21:43:42.186Z,10.00
2022-07-30T21:46:11.359Z,8.20
2022-07-30T21:48:39.674Z,9.27
2022-07-30T21:51:08.815Z,10.57
2022-07-30T21:53:44.604Z,10.07
2022-07-30T21:56:13.316Z,9.82
2022-07-30T21:58:40.865Z,9.10
2022-07-30T22:01:17.047Z,9.23
2022-07-30T22:04:02.732Z,8.73
2022-07-30T22:06:38.684Z,7.80
2022-07-30T22:09:19.154Z,7.70
2022-07-30T22:12:01.470Z,9.57
2022-07-30T22:14:29.837Z,8.30
2022-07-30T22:16:59.075Z,6.83
2022-07-30T22:19:26.874Z,8.02
2022-07-30T22:21:55.104Z,9.55
2022-07-30T22:24:28.724Z,10.40
2022-07-30T22:27:00.054Z,10.10
2022-07-30T22:29:34.505Z,9.33
2022-07-30T22:32:04.319Z,11.48
2022-07-30T22:34:32.871Z,9.82
2022-07-30T22:37:03.406Z,11.80
2022-07-30T22:39:31.490Z,15.45
2022-07-30T22:42:17.871Z,14.50
2022-07-30T22:44:45.716Z,12.60
2022-07-30T22:47:21.158Z,13.70
2022-07-30T22:50:06.380Z,8.80
2022-07-30T22:52:40.213Z,8.75
2022-07-30T22:55:22.143Z,9.63
2022-07-30T22:57:50.239Z,10.45
2022-07-30T23:00:27.495Z,10.77
2022-07-30T23:02:57.149Z,7.53
2022-07-30T23:05:25.580Z,7.13
2022-07-30T23:07:53.859Z,7.83
2022-07-30T23:10:21.467Z,7.55
2022-07-30T23:12:16.037Z,8.23
2022-07-30T23:12:27.227Z,10.43
2022-07-30T23:12:52.537Z,6.60
2022-07-30T23:15:20.810Z,6.72
2022-07-30T23:17:48.486Z,8.43
2022-07-30T23:20:18.214Z,8.67
2022-07-30T23:22:45.765Z,8.02
2022-07-30T23:25:13.921Z,7.55
2022-07-30T23:27:42.130Z,7.18
2022-07-30T23:30:11.776Z,6.70
2022-07-30T23:32:42.582Z,7.33
2022-07-30T23:35:10.523Z,7.50
2022-07-30T23:37:49.017Z,7.07
2022-07-30T23:40:20.021Z,8.00
2022-07-30T23:42:50.309Z,9.02
2022-07-30T23:45:18.418Z,8.03
2022-07-30T23:47:54.601Z,8.57
2022-07-30T23:50:36.323Z,9.40
2022-07-30T23:53:05.418Z,7.90
2022-07-30T23:55:33.328Z,9.23
2022-07-30T23:58:01.089Z,8.63
